LFBO Airport Information

Runway Information
Runway 14L Length 9843 ft width 148 ft
Elevation 490 ft Threshold 0 ft Heading 143
Runway 32R Length 9843 ft Width 148 ft
Elevation 497 ft Threshold 0 ft Heading 323
Runway 14R Length 11483 ft width 148 ft
Elevation 488 ft Threshold 0 ft Heading 143
Runway 32L Length 11483 ft Width 148 ft
Elevation 497 ft Threshold 0 ft Heading 323
Airport Frequencies
Type AFIS Name TOULOUSE I Frequency 121.25 MHZ
Type APP Name APP Frequency 121.1 MHZ
Type APP Name TOULOUSE A Frequency 125.175 MHZ
Type ATIS Name ATIS Frequency 123.125 MHZ
Type CLD Name CLNC DEL Frequency 121.7 MHZ
Type GND Name GND Frequency 121.9 MHZ
Type TWR Name TWR Frequency 118.1 MHZ
Airport Navaids
Type NDB Name Toulouse Frequency 415 KHZ
Type VOR-DME Name Toulouse Frequency 117700 KHZ
Type NDB Name Toulouse Frequency 423 KHZ
Type NDB Name Toulouse Frequency 406 KHZ
Airport Weather Information & NOTAM
ADDS - METARS form results

(0810 UTC 22 May 2018)
 
METAR text: LFBO 220800Z AUTO 00000KT 9999 FEW015 SCT110 BKN140 17/13 Q1015 BECMG SCT030 SCT040TCU
Conditions at: LFBO (TOULOUSE/BLAGNAC, FR) observed 0800 UTC 22 May 2018
Temperature: 17.0°C (63°F)
Dewpoint: 13.0°C (55°F) [RH = 77%]
Pressure (altimeter): 29.97 inches Hg (1015.0 mb)
Winds: calm
Visibility: 6 or more miles (10+ km)
Ceiling: 14000 feet AGL
Clouds: few clouds at 1500 feet AGL
scattered clouds at 11000 feet AGL
broken clouds at 14000 feet AGL
Weather: no significant weather observed at this time

METAR text: LFBO 220730Z AUTO VRB01KT 9999 FEW028 SCT110 BKN160 16/14 Q1015 BECMG SCT030 SCT040TCU
Conditions at: LFBO (TOULOUSE/BLAGNAC, FR) observed 0730 UTC 22 May 2018
Temperature: 16.0°C (61°F)
Dewpoint: 14.0°C (57°F) [RH = 88%]
Pressure (altimeter): 29.97 inches Hg (1015.0 mb)
Winds: variable direction winds at 1 MPH (1 knots; 0.5 m/s)
Visibility: 6 or more miles (10+ km)
Ceiling: 16000 feet AGL
Clouds: few clouds at 2800 feet AGL
scattered clouds at 11000 feet AGL
broken clouds at 16000 feet AGL
Weather: no significant weather observed at this time